Time;durP1;ratioP1;P1;durP2;ratioP2;P2;SDS_P1;SDS_P2;PMS_P1;PMS_P2;Temp;Humidity;BMP_temperature;BMP_pressure;BME280_temperature;BME280_humidity;BME280_pressure;Samples;Min_cycle;Max_cycle;Signal;HPM_P1;HPM_P2
2022/06/27 00:02:02;;;;;;;8.97;5.10;;;;;;;18.73;70.83;100630.48;123475;1099;104436;-78
2022/06/27 00:04:33;;;;;;;14.03;6.03;;;;;;;18.71;70.89;100618.94;123418;1099;107930;-78
2022/06/27 00:07:05;;;;;;;8.07;4.80;;;;;;;18.70;71.30;100627.81;123544;1099;104344;-78
2022/06/27 00:09:36;;;;;;;11.13;4.77;;;;;;;18.69;71.46;100616.27;123587;1099;104341;-78
2022/06/27 00:12:09;;;;;;;10.03;4.63;;;;;;;18.68;71.33;100614.52;123537;1099;104289;-77
2022/06/27 00:14:41;;;;;;;9.90;5.05;;;;;;;18.67;71.76;100615.39;123506;1099;104271;-78
2022/06/27 00:17:13;;;;;;;10.00;5.10;;;;;;;18.64;71.62;100618.03;123515;1098;104408;-78
2022/06/27 00:19:44;;;;;;;7.83;4.70;;;;;;;18.60;71.68;100618.89;123488;1099;104354;-79
2022/06/27 00:22:16;;;;;;;11.00;4.90;;;;;;;18.59;71.78;100619.79;123478;1099;104274;-77
2022/06/27 00:24:47;;;;;;;9.33;4.70;;;;;;;18.57;71.79;100616.21;123264;1099;104345;-78
2022/06/27 00:27:19;;;;;;;6.75;4.60;;;;;;;18.56;72.12;100613.55;123500;1099;104351;-78
2022/06/27 00:29:50;;;;;;;8.43;4.90;;;;;;;18.53;71.77;100617.10;123513;1099;104412;-79
2022/06/27 00:32:23;;;;;;;7.90;4.90;;;;;;;18.51;71.97;100616.19;123470;1099;104338;-77
2022/06/27 00:34:56;;;;;;;6.77;4.70;;;;;;;18.48;71.82;100613.52;123269;1099;104259;-78
2022/06/27 00:37:28;;;;;;;8.67;4.60;;;;;;;18.45;72.23;100613.50;123270;1099;104328;-78
2022/06/27 00:39:59;;;;;;;9.90;5.07;;;;;;;18.43;72.35;100617.92;123507;1099;104239;-77
2022/06/27 00:42:31;;;;;;;8.67;4.77;;;;;;;18.41;72.35;100609.06;123226;1102;104385;-78
2022/06/27 00:45:02;;;;;;;8.80;5.30;;;;;;;18.39;72.40;100603.74;123422;1098;104312;-78
2022/06/27 00:47:33;;;;;;;12.63;5.30;;;;;;;18.38;72.39;100615.23;123506;1099;104335;-78
2022/06/27 00:50:06;;;;;;;9.45;5.45;;;;;;;18.37;72.41;100601.95;123496;1099;104213;-78
2022/06/27 00:52:37;;;;;;;9.37;5.13;;;;;;;18.36;72.60;100613.48;123568;1099;104324;-78
2022/06/27 00:55:10;;;;;;;10.00;5.10;;;;;;;18.33;72.39;100612.55;123459;1099;104269;-78
2022/06/27 00:57:42;;;;;;;11.07;5.00;;;;;;;18.31;72.65;100611.67;123538;1099;104264;-78
2022/06/27 01:00:15;;;;;;;8.23;4.80;;;;;;;18.29;72.81;100615.19;123510;1099;104367;-78
2022/06/27 01:02:47;;;;;;;12.50;5.33;;;;;;;18.26;72.86;100610.77;123563;1099;104269;-78
2022/06/27 01:05:18;;;;;;;9.33;4.87;;;;;;;18.26;72.85;100617.82;123486;1099;104243;-78
2022/06/27 01:07:49;;;;;;;9.10;5.20;;;;;;;18.23;73.21;100616.06;123485;1099;104326;-77
2022/06/27 01:10:21;;;;;;;10.87;5.20;;;;;;;18.22;73.28;100616.92;123530;1099;104230;-77
2022/06/27 01:12:53;;;;;;;8.07;4.83;;;;;;;18.20;73.35;100612.47;123526;1099;104415;-78
2022/06/27 01:15:25;;;;;;;8.17;4.67;;;;;;;18.19;73.36;100619.56;123317;1099;104328;-78
2022/06/27 01:17:57;;;;;;;8.57;5.10;;;;;;;18.16;73.55;100624.85;123488;1099;104297;-78
2022/06/27 01:20:29;;;;;;;10.23;4.63;;;;;;;18.16;73.74;100622.20;123454;1099;104619;-78
2022/06/27 01:23:01;;;;;;;8.90;5.30;;;;;;;18.15;73.54;100623.06;123550;1099;104239;-78
2022/06/27 01:25:35;;;;;;;7.67;5.10;;;;;;;18.13;73.69;100622.17;123554;1099;104348;-78
2022/06/27 01:28:08;;;;;;;11.25;4.97;;;;;;;18.12;73.72;100612.42;123510;1099;104296;-78
2022/06/27 01:30:40;;;;;;;9.98;5.22;;;;;;;18.11;74.23;100623.95;123248;1099;104287;-78
2022/06/27 01:33:12;;;;;;;8.23;4.57;;;;;;;18.08;73.73;100623.92;123206;1102;104239;-78
2022/06/27 01:35:43;;;;;;;8.43;4.80;;;;;;;18.05;73.99;100622.12;123244;1100;104441;-77
2022/06/27 01:38:15;;;;;;;8.77;4.87;;;;;;;18.03;73.84;100618.58;123216;1102;104398;-78
2022/06/27 01:40:46;;;;;;;9.90;4.87;;;;;;;18.03;74.60;100633.59;123192;1102;104418;-80
2022/06/27 01:43:18;;;;;;;6.67;4.83;;;;;;;18.01;73.84;100630.05;123248;1102;104438;-78
2022/06/27 01:45:49;;;;;;;8.90;5.40;;;;;;;18.00;74.24;100630.92;123149;1102;104393;-78
2022/06/27 01:48:23;;;;;;;7.97;4.77;;;;;;;17.96;73.81;100630.89;123230;1102;104245;-78
2022/06/27 01:50:59;;;;;;;13.13;5.13;;;;;;;17.93;74.12;100630.88;123249;1102;104836;-78
2022/06/27 01:53:31;;;;;;;11.77;5.00;;;;;;;17.93;74.50;100630.88;123271;1102;104424;-78
2022/06/27 01:56:04;;;;;;;8.50;4.75;;;;;;;17.92;74.30;100637.08;123284;1102;104421;-78
2022/06/27 01:58:39;;;;;;;7.70;4.73;;;;;;;17.92;74.67;100630.86;123180;1101;104534;-78
2022/06/27 02:01:12;;;;;;;8.13;4.90;;;;;;;17.92;74.76;100637.08;123250;1102;104421;-76
2022/06/27 02:03:43;;;;;;;11.20;4.95;;;;;;;17.90;74.11;100630.88;123232;1102;104265;-78
2022/06/27 02:06:15;;;;;;;8.00;4.77;;;;;;;17.88;74.83;100637.92;123500;1099;104222;-78
2022/06/27 02:08:51;;;;;;;8.73;5.03;;;;;;;17.85;74.84;100629.02;123546;1099;104338;-79
2022/06/27 02:11:23;;;;;;;9.10;5.07;;;;;;;17.83;74.93;100631.66;123485;1099;104335;-77
2022/06/27 02:13:57;;;;;;;10.67;5.63;;;;;;;17.82;75.24;100640.49;123477;1099;104249;-78
2022/06/27 02:16:29;;;;;;;8.10;4.80;;;;;;;17.81;75.20;100644.05;123488;1099;104255;-78
2022/06/27 02:19:01;;;;;;;8.13;4.80;;;;;;;17.80;74.87;100644.91;123349;1099;104360;-77
2022/06/27 02:21:33;;;;;;;11.50;5.10;;;;;;;17.79;75.39;100644.03;123548;1099;104626;-80
2022/06/27 02:24:05;;;;;;;9.57;4.93;;;;;;;17.79;75.54;100637.81;123482;1099;104405;-78
2022/06/27 02:26:36;;;;;;;10.43;5.10;;;;;;;17.78;75.11;100646.67;123535;1099;104239;-79
2022/06/27 02:29:08;;;;;;;12.40;5.17;;;;;;;17.78;75.45;100642.24;123510;1099;104357;-79
2022/06/27 02:31:48;;;;;;;12.90;5.00;;;;;;;17.79;75.45;100637.81;123598;1098;104220;-78
2022/06/27 02:34:20;;;;;;;12.57;4.80;;;;;;;17.81;75.53;100637.83;123514;1099;104309;-77
2022/06/27 02:36:51;;;;;;;8.40;4.67;;;;;;;17.81;75.53;100644.05;123301;1099;104402;-78
2022/06/27 02:39:26;;;;;;;8.47;5.00;;;;;;;17.82;75.50;100645.80;123525;1099;104357;-78
2022/06/27 02:42:02;;;;;;;9.57;5.00;;;;;;;17.82;75.66;100642.27;123564;1099;104342;-77
2022/06/27 02:44:34;;;;;;;11.43;4.97;;;;;;;17.84;75.84;100648.47;123316;1101;104306;-77
2022/06/27 02:47:06;;;;;;;9.47;5.20;;;;;;;17.83;75.91;100649.37;123491;1099;104335;-78
2022/06/27 02:49:38;;;;;;;7.87;5.07;;;;;;;17.83;75.98;100650.24;123239;1099;104514;-78
2022/06/27 02:52:18;;;;;;;10.07;5.17;;;;;;;17.83;76.10;100647.59;123268;1099;104220;-77
2022/06/27 02:55:08;;;;;;;11.33;5.40;;;;;;;17.84;75.88;100654.69;123302;1099;104402;-78
2022/06/27 02:57:49;;;;;;;9.23;4.90;;;;;;;17.87;76.07;100653.80;123496;1098;104267;-77
2022/06/27 03:00:22;;;;;;;9.37;5.20;;;;;;;17.88;75.64;100661.81;123261;1102;104351;-78
2022/06/27 03:02:56;;;;;;;11.30;5.37;;;;;;;17.93;76.01;100657.42;123471;1099;104380;-78
2022/06/27 03:06:02;;;;;;;9.63;5.43;;;;;;;17.95;75.76;100655.69;123563;1099;104264;-77
2022/06/27 03:08:42;;;;;;;6.90;4.65;;;;;;;18.00;76.41;100657.47;123280;1099;109409;-77
2022/06/27 03:11:17;;;;;;;11.97;4.80;;;;;;;18.02;76.09;100656.62;123351;1100;104271;-77
2022/06/27 03:13:47;;;;;;;;;;;;;;;18.00;75.87;100654.81;123573;1099;104267;-78
2022/06/27 03:16:19;;;;;;;11.83;5.00;;;;;;;18.05;75.95;100664.61;123533;1099;104399;-80
2022/06/27 03:18:51;;;;;;;9.97;5.50;;;;;;;18.10;75.62;100661.98;123293;1099;104280;-78
2022/06/27 03:21:42;;;;;;;12.27;4.80;;;;;;;18.16;76.39;100659.38;123534;1099;104239;-79
2022/06/27 03:24:14;;;;;;;10.40;5.17;;;;;;;18.19;75.88;100662.05;123238;1099;104293;-79
2022/06/27 03:26:46;;;;;;;11.10;5.07;;;;;;;18.24;75.74;100662.09;123481;1099;104265;-78
2022/06/27 03:29:19;;;;;;;9.23;4.93;;;;;;;18.29;75.80;100657.69;123459;1099;104478;-78
2022/06/27 03:31:50;;;;;;;14.47;5.30;;;;;;;18.37;75.67;100665.70;123333;1099;104261;-77
2022/06/27 03:34:23;;;;;;;11.23;5.30;;;;;;;18.41;76.03;100663.08;123651;1099;104351;-77
2022/06/27 03:37:00;;;;;;;8.57;5.23;;;;;;;18.45;75.95;100659.57;123567;1098;104261;-77
2022/06/27 03:39:34;;;;;;;12.87;5.63;;;;;;;18.49;75.57;100656.03;123286;1102;104312;-80
2022/06/27 03:42:06;;;;;;;10.60;5.00;;;;;;;18.54;75.92;100663.16;123513;1099;104438;-78
2022/06/27 03:44:38;;;;;;;7.30;4.93;;;;;;;18.58;76.21;100671.15;123212;1098;104367;-79
2022/06/27 03:47:09;;;;;;;9.70;4.80;;;;;;;18.63;75.60;100672.05;123394;1099;104357;-79
2022/06/27 03:50:07;;;;;;;9.33;5.27;;;;;;;18.68;75.33;100675.65;123532;1099;104220;-78
2022/06/27 03:52:40;;;;;;;8.40;4.70;;;;;;;18.74;75.92;100676.55;123335;1100;104418;-78
2022/06/27 03:55:13;;;;;;;11.07;5.47;;;;;;;18.80;75.78;100676.58;123196;1102;104558;-77
2022/06/27 03:57:51;;;;;;;9.17;5.10;;;;;;;18.83;75.34;100677.47;123267;1102;104572;-78
2022/06/27 04:00:25;;;;;;;11.13;5.53;;;;;;;18.88;75.07;100676.65;123320;1102;104359;-79
2022/06/27 04:02:57;;;;;;;12.37;5.13;;;;;;;18.95;75.04;100671.37;123361;1102;104419;-78
2022/06/27 04:05:51;;;;;;;10.40;5.10;;;;;;;18.99;75.70;100667.81;123206;1102;104449;-78
2022/06/27 04:08:23;;;;;;;12.10;5.17;;;;;;;19.05;75.06;100664.30;123270;1102;104220;-78
2022/06/27 04:10:55;;;;;;;10.60;5.50;;;;;;;19.10;75.82;100662.53;123360;1102;104373;-78
2022/06/27 04:13:30;;;;;;;13.07;5.80;;;;;;;19.17;75.50;100666.12;123392;1102;104415;-79
2022/06/27 04:16:20;;;;;;;10.03;5.50;;;;;;;19.23;75.73;100666.15;123488;1102;104711;-79
2022/06/27 04:19:24;;;;;;;10.57;5.50;;;;;;;19.32;75.02;100663.52;123443;1102;104424;-79
2022/06/27 04:22:24;;;;;;;13.17;5.60;;;;;;;19.40;75.63;100667.06;123499;1102;104352;-78
2022/06/27 04:25:02;;;;;;;9.90;5.30;;;;;;;19.48;75.41;100666.20;123504;1102;104302;-79
2022/06/27 04:27:53;;;;;;;8.37;5.23;;;;;;;19.57;75.47;100666.19;123362;1102;104261;-79
2022/06/27 04:30:25;;;;;;;11.20;5.40;;;;;;;19.67;75.02;100661.79;123408;1102;104894;-78
2022/06/27 04:32:58;;;;;;;11.63;5.20;;;;;;;19.77;74.93;100662.70;123671;1099;104380;-78
2022/06/27 04:35:30;;;;;;;12.70;5.33;;;;;;;19.88;74.34;100666.25;123580;1099;104332;-78
2022/06/27 04:38:02;;;;;;;10.27;5.40;;;;;;;19.99;74.30;100663.59;123710;1099;104274;-78
2022/06/27 04:40:36;;;;;;;12.20;5.53;;;;;;;20.07;74.28;100662.70;123724;1098;104386;-78
2022/06/27 04:43:08;;;;;;;10.65;5.30;;;;;;;20.16;74.59;100656.47;123529;1099;104351;-78
2022/06/27 04:45:40;;;;;;;11.60;5.60;;;;;;;20.23;74.54;100650.25;123759;1099;104262;-78
2022/06/27 04:48:27;;;;;;;12.10;5.27;;;;;;;20.32;74.84;100654.69;123387;1100;104422;-77
2022/06/27 04:50:59;;;;;;;10.40;5.60;;;;;;;20.37;74.39;100654.68;123858;1098;104354;-78
2022/06/27 04:53:31;;;;;;;11.20;5.30;;;;;;;20.41;74.36;100657.34;123949;1099;104251;-77
2022/06/27 04:56:03;;;;;;;13.27;5.80;;;;;;;20.43;73.75;100650.22;123970;1099;104331;-77
2022/06/27 04:58:35;;;;;;;14.97;5.70;;;;;;;20.47;73.88;100653.75;124068;1099;104239;-78
2022/06/27 05:01:07;;;;;;;12.47;5.33;;;;;;;20.51;74.29;100652.86;124082;1099;104405;-76
2022/06/27 05:03:53;;;;;;;9.77;5.30;;;;;;;20.56;74.23;100655.52;123924;1099;104393;-78
2022/06/27 05:06:29;;;;;;;11.03;5.10;;;;;;;20.59;73.72;100655.50;124159;1098;104272;-78
2022/06/27 05:09:01;;;;;;;11.73;5.40;;;;;;;20.63;74.23;100654.58;123970;1099;104283;-78
2022/06/27 05:11:33;;;;;;;11.45;5.45;;;;;;;20.67;73.05;100653.73;124085;1099;104336;-78
2022/06/27 05:14:05;;;;;;;15.40;5.60;;;;;;;20.73;73.45;100656.38;124350;1099;104332;-77
2022/06/27 05:16:56;;;;;;;16.00;6.23;;;;;;;20.80;73.82;100651.89;123982;1099;104168;-79
2022/06/27 05:19:31;;;;;;;10.30;5.50;;;;;;;20.88;72.83;100649.20;124057;1102;104351;-79
2022/06/27 05:22:03;;;;;;;14.30;5.90;;;;;;;20.98;73.07;100659.81;124038;1102;104868;-79
2022/06/27 05:24:35;;;;;;;13.87;5.53;;;;;;;21.10;72.74;100653.55;124029;1102;102233;-78
2022/06/27 05:27:08;;;;;;;13.80;5.40;;;;;;;21.22;72.63;100651.70;124082;1102;102065;-79
2022/06/27 05:29:39;;;;;;;15.83;6.23;;;;;;;21.36;72.83;100649.83;123821;1102;104149;-77
2022/06/27 05:32:12;;;;;;;15.27;5.87;;;;;;;21.48;72.67;100662.22;123771;1102;104048;-78
2022/06/27 05:34:44;;;;;;;12.73;5.70;;;;;;;21.60;72.62;100658.59;123750;1105;104311;-78
2022/06/27 05:37:15;;;;;;;10.80;5.33;;;;;;;21.69;72.51;100659.44;123839;1105;104443;-78
2022/06/27 05:39:47;;;;;;;14.93;6.10;;;;;;;21.80;72.63;100655.77;123915;1103;104370;-78
2022/06/27 05:42:23;;;;;;;12.83;5.43;;;;;;;21.90;72.25;100652.14;124065;1102;104434;-78
2022/06/27 05:44:56;;;;;;;13.63;6.30;;;;;;;22.02;72.13;100656.50;124052;1102;102277;-78
2022/06/27 05:47:29;;;;;;;12.10;5.20;;;;;;;22.12;70.87;100662.64;123873;1105;104262;-79
2022/06/27 05:50:13;;;;;;;13.32;5.20;;;;;;;22.21;71.08;100654.53;123906;1105;104434;-80
2022/06/27 05:52:46;;;;;;;13.48;5.65;;;;;;;22.31;70.94;100656.23;124017;1105;104361;-79
2022/06/27 05:55:19;;;;;;;10.00;5.40;;;;;;;22.41;71.28;100654.37;124190;1105;104284;-80
2022/06/27 05:57:52;;;;;;;11.63;5.40;;;;;;;22.52;70.45;100656.92;123820;1105;104297;-78
2022/06/27 06:00:25;;;;;;;11.67;5.13;;;;;;;22.61;71.07;100660.37;124090;1102;104248;-77
2022/06/27 06:02:58;;;;;;;15.65;6.05;;;;;;;22.70;69.95;100659.36;124294;1101;103552;-77
2022/06/27 06:05:30;;;;;;;18.17;5.83;;;;;;;22.81;70.56;100669.94;124277;1102;104405;-77
2022/06/27 06:08:06;;;;;;;12.55;5.42;;;;;;;22.88;70.38;100663.61;123924;1105;104421;-77
2022/06/27 06:10:45;;;;;;;15.67;5.73;;;;;;;23.01;70.21;100669.69;123848;1105;104242;-80
2022/06/27 06:13:22;;;;;;;15.65;6.00;;;;;;;23.10;69.52;100674.95;124209;1102;104364;-79
2022/06/27 06:15:59;;;;;;;15.60;6.33;;;;;;;23.18;69.26;100674.85;124178;1102;104405;-78
2022/06/27 06:18:33;;;;;;;16.17;5.67;;;;;;;23.27;69.31;100674.73;124148;1102;104200;-80
2022/06/27 06:21:09;;;;;;;13.20;5.73;;;;;;;23.33;69.20;100663.94;124774;1102;102184;-80
2022/06/27 06:23:41;;;;;;;18.23;6.00;;;;;;;23.39;68.92;100667.42;124236;1102;104290;-80
2022/06/27 06:26:16;;;;;;;19.30;6.40;;;;;;;23.46;68.90;100669.11;124204;1102;104144;-79
2022/06/27 06:29:14;;;;;;;14.33;5.87;;;;;;;23.54;68.64;100660.96;126068;1102;102947;-81
2022/06/27 06:31:51;;;;;;;12.67;5.93;;;;;;;23.68;68.37;100662.53;124552;1103;104230;-80
2022/06/27 06:34:25;;;;;;;14.70;6.03;;;;;;;23.82;68.27;100661.41;124269;1102;104226;-77
2022/06/27 06:36:55;;;;;;;;;;;;;;;23.96;67.34;100662.08;124239;1102;104341;-80
2022/06/27 06:39:28;;;;;;;9.93;5.07;;;;;;;24.12;67.69;100664.50;124316;1102;103101;-78
2022/06/27 06:42:01;;;;;;;13.38;5.70;;;;;;;24.27;66.98;100648.14;124260;1102;104831;-79
2022/06/27 06:44:40;;;;;;;11.87;5.50;;;;;;;24.43;66.90;100651.41;124046;1099;104246;-78
2022/06/27 06:47:36;;;;;;;;;;;;;;;24.64;64.52;100654.64;124872;1099;104297;-76
2022/06/27 06:50:20;;;;;;;10.83;5.60;;;;;;;24.76;64.95;100660.63;124253;1099;104226;-77
2022/06/27 06:52:53;;;;;;;8.30;5.20;;;;;;;24.87;63.24;100664.88;125556;1098;102860;-76
2022/06/27 06:55:29;;;;;;;10.95;5.40;;;;;;;24.99;63.05;100659.25;124624;1099;104169;-77
2022/06/27 06:57:59;;;;;;;;;;;;;;;25.08;60.59;100656.37;124763;1099;104248;-76
2022/06/27 07:00:32;;;;;;;11.03;5.40;;;;;;;25.22;60.77;100660.56;124635;1099;104274;-76
2022/06/27 07:03:06;;;;;;;12.90;5.37;;;;;;;25.32;61.11;100667.50;124634;1099;111888;-77
2022/06/27 07:05:39;;;;;;;9.23;5.42;;;;;;;25.41;61.85;100661.92;124693;1099;104191;-77
2022/06/27 07:08:13;;;;;;;10.93;5.70;;;;;;;25.53;60.68;100670.64;124405;1099;104412;-77
2022/06/27 07:10:50;;;;;;;12.57;5.40;;;;;;;25.59;60.63;100667.81;124232;1099;104800;-78
2022/06/27 07:13:27;;;;;;;9.93;4.83;;;;;;;25.64;60.39;100674.81;124233;1099;104337;-77
2022/06/27 07:16:03;;;;;;;10.07;5.27;;;;;;;25.67;59.94;100676.55;123987;1099;104274;-78
2022/06/27 07:19:00;;;;;;;15.23;6.40;;;;;;;25.70;60.30;100676.48;124461;1099;104197;-78
2022/06/27 07:21:36;;;;;;;11.40;5.40;;;;;;;25.69;59.71;100685.45;124519;1099;104347;-77
2022/06/27 07:24:10;;;;;;;11.60;5.33;;;;;;;25.68;59.19;100670.27;124229;1099;104334;-78
2022/06/27 07:26:41;;;;;;;9.00;5.20;;;;;;;25.64;58.56;100682.88;124714;1099;104223;-77
2022/06/27 07:29:20;;;;;;;11.55;5.30;;;;;;;25.65;59.26;100675.72;124755;1099;104326;-80
2022/06/27 07:32:08;;;;;;;9.77;5.73;;;;;;;25.67;58.40;100678.38;124570;1099;104532;-77
2022/06/27 07:34:45;;;;;;;11.53;5.20;;;;;;;25.70;58.27;100678.30;116865;1098;10001839;-78
2022/06/27 07:37:19;;;;;;;9.70;4.93;;;;;;;25.80;58.04;100672.66;124890;1099;104248;-79
2022/06/27 07:39:57;;;;;;;10.23;5.00;;;;;;;25.97;58.18;100677.63;124521;1099;104213;-80
2022/06/27 07:42:41;;;;;;;9.37;5.10;;;;;;;26.17;57.55;100669.05;124391;1099;104312;-79
2022/06/27 07:45:20;;;;;;;14.50;5.07;;;;;;;26.44;57.29;100665.66;124472;1099;104402;-78
2022/06/27 07:48:03;;;;;;;10.43;5.00;;;;;;;26.63;56.38;100668.71;125425;1099;104829;-79
2022/06/27 07:50:39;;;;;;;7.92;5.10;;;;;;;26.80;56.55;100658.41;124316;1099;104329;-78
2022/06/27 07:53:20;;;;;;;10.60;5.00;;;;;;;27.02;55.37;100668.50;124899;1099;104172;-78
2022/06/27 07:56:03;;;;;;;11.00;5.00;;;;;;;27.15;54.62;100666.34;124715;1099;103432;-79
2022/06/27 07:58:43;;;;;;;13.77;5.27;;;;;;;27.25;55.45;100666.02;124735;1099;102833;-81
2022/06/27 08:01:28;;;;;;;14.40;5.57;;;;;;;27.33;54.94;100659.52;124803;1099;105554;-80
2022/06/27 08:04:07;;;;;;;12.70;5.13;;;;;;;27.44;55.00;100652.88;124563;1099;104163;-78
2022/06/27 08:06:46;;;;;;;9.45;4.65;;;;;;;27.61;54.44;100659.52;124810;1099;104173;-80
2022/06/27 08:09:22;;;;;;;12.70;4.93;;;;;;;27.74;53.95;100657.33;124385;1099;104319;-79
2022/06/27 08:12:16;;;;;;;8.80;4.70;;;;;;;27.92;53.53;100656.67;124907;1099;102665;-81
2022/06/27 08:15:12;;;;;;;12.20;5.23;;;;;;;28.20;53.33;100653.06;124756;1099;104277;-78
2022/06/27 08:18:04;;;;;;;10.90;4.63;;;;;;;28.43;52.25;100648.68;124790;1099;104277;-80
2022/06/27 08:20:55;;;;;;;9.20;4.70;;;;;;;28.71;51.81;100661.20;124977;1099;103323;-78
2022/06/27 08:23:33;;;;;;;11.13;4.43;;;;;;;28.86;51.74;100655.23;124363;1099;103677;-79
2022/06/27 08:26:23;;;;;;;7.40;4.63;;;;;;;28.94;50.98;100649.53;124972;1099;104399;-79
2022/06/27 08:28:58;;;;;;;12.43;4.90;;;;;;;28.96;50.97;100645.81;124534;1099;104265;-79
2022/06/27 08:31:41;;;;;;;9.50;4.70;;;;;;;29.02;49.76;100650.11;126158;1098;102663;-78
2022/06/27 08:34:28;;;;;;;8.30;4.67;;;;;;;29.08;47.74;100644.47;126598;1098;102205;-80
2022/06/27 08:37:02;;;;;;;7.60;4.53;;;;;;;29.32;48.30;100641.77;125188;1099;104156;-80
2022/06/27 08:39:39;;;;;;;8.70;4.75;;;;;;;29.51;48.43;100636.48;125148;1099;104195;-80
2022/06/27 08:42:18;;;;;;;8.70;4.57;;;;;;;29.75;48.14;100640.00;124771;1099;104269;-80
2022/06/27 08:45:12;;;;;;;8.80;4.10;;;;;;;30.03;47.83;100641.54;124846;1099;104242;-79
2022/06/27 08:47:54;;;;;;;11.43;4.37;;;;;;;30.24;45.59;100635.19;125784;1099;104717;-79
2022/06/27 08:50:29;;;;;;;8.37;4.23;;;;;;;30.38;46.00;100623.75;124809;1098;104358;-80
2022/06/27 08:53:13;;;;;;;7.08;4.25;;;;;;;30.43;45.49;100628.99;124594;1099;103968;-78
2022/06/27 08:56:27;;;;;;;10.00;4.53;;;;;;;30.52;44.52;100619.59;124882;1099;104240;-80
2022/06/27 08:59:13;;;;;;;9.43;4.42;;;;;;;30.59;44.33;100627.36;124983;1099;104229;-81
2022/06/27 09:02:01;;;;;;;;;;;;;;;;;;;;;
2022/06/27 09:05:07;;;;;;;9.70;3.90;;;;;;;30.86;44.14;100628.86;124760;1099;104322;-78
2022/06/27 09:07:52;;;;;;;7.83;4.13;;;;;;;30.92;42.99;100626.73;124890;1099;104460;-79
2022/06/27 09:10:32;;;;;;;5.17;3.87;;;;;;;30.87;42.00;100622.47;125032;1099;104166;-78
2022/06/27 09:13:13;;;;;;;5.30;3.87;;;;;;;30.70;41.28;100617.84;124327;1100;104342;-78
2022/06/27 09:15:55;;;;;;;7.13;3.77;;;;;;;30.65;41.44;100618.95;126109;1102;103099;-81
2022/06/27 09:18:28;;;;;;;8.23;4.03;;;;;;;30.76;42.18;100618.45;124419;1102;104166;-81
2022/06/27 09:21:00;;;;;;;;;;;;;;;30.91;39.97;100616.84;124409;1102;104217;-81
2022/06/27 09:23:43;;;;;;;9.27;3.90;;;;;;;30.91;41.60;100608.71;124313;1102;104427;-79
2022/06/27 09:26:25;;;;;;;9.47;4.40;;;;;;;30.93;41.15;100617.66;124202;1099;104220;-79
2022/06/27 09:29:07;;;;;;;9.00;3.77;;;;;;;30.99;41.58;100619.22;124247;1099;104194;-79
2022/06/27 09:31:46;;;;;;;8.27;3.63;;;;;;;30.98;40.12;100609.35;124293;1099;104198;-80
2022/06/27 09:34:33;;;;;;;4.57;3.50;;;;;;;30.90;39.91;100603.36;124239;1099;104309;-82
2022/06/27 09:37:09;;;;;;;6.87;3.42;;;;;;;30.91;39.68;100608.71;124176;1100;104162;-79
2022/06/27 09:39:52;;;;;;;5.27;3.87;;;;;;;30.90;39.61;100609.69;124406;1102;104222;-79
2022/06/27 09:42:32;;;;;;;6.63;3.57;;;;;;;30.89;38.47;100617.88;124281;1100;104319;-79
2022/06/27 09:45:06;;;;;;;11.53;3.60;;;;;;;30.87;39.07;100606.22;124628;1099;105389;-81
2022/06/27 09:47:38;;;;;;;6.97;3.57;;;;;;;30.80;38.44;100608.34;124906;1099;104450;-80
2022/06/27 09:50:21;;;;;;;5.90;3.50;;;;;;;30.84;38.90;100601.84;124626;1099;104607;-80
2022/06/27 09:53:07;;;;;;;5.07;3.50;;;;;;;30.74;37.26;100598.67;124688;1099;104280;-79
2022/06/27 09:56:02;;;;;;;4.50;3.33;;;;;;;30.78;37.70;100594.88;126900;1099;102336;-81
2022/06/27 09:58:46;;;;;;;6.87;3.47;;;;;;;30.91;38.20;100594.30;126402;1098;102687;-80
2022/06/27 10:01:21;;;;;;;7.33;3.50;;;;;;;31.02;38.47;100589.27;125007;1098;103027;-78
2022/06/27 10:04:03;;;;;;;7.17;3.17;;;;;;;31.05;37.17;100585.54;124575;1102;104441;-78
2022/06/27 10:06:42;;;;;;;7.43;3.40;;;;;;;31.19;36.94;100588.45;124621;1100;105482;-80
2022/06/27 10:09:18;;;;;;;11.37;3.40;;;;;;;31.16;36.92;100591.30;124712;1099;104350;-81
2022/06/27 10:12:56;;;;;;;5.73;3.00;;;;;;;31.22;37.36;100580.17;124619;1102;104461;-81
2022/06/27 10:15:38;;;;;;;3.33;3.03;;;;;;;31.14;36.96;100594.09;124482;1102;104354;-82
2022/06/27 10:18:15;;;;;;;8.97;3.40;;;;;;;31.25;36.51;100581.86;124487;1102;104782;-81
2022/06/27 10:21:27;;;;;;;7.20;3.07;;;;;;;31.46;36.46;100588.92;124256;1102;104198;-79
2022/06/27 10:24:37;;;;;;;7.07;3.30;;;;;;;31.49;35.49;100585.16;124494;1102;104162;-80
2022/06/27 10:27:32;;;;;;;4.70;3.13;;;;;;;31.38;35.00;100582.12;124232;1105;104229;-78
2022/06/27 10:30:41;;;;;;;3.37;3.07;;;;;;;31.42;34.78;100581.89;124531;1102;104274;-80
2022/06/27 10:33:39;;;;;;;7.37;3.00;;;;;;;31.50;34.86;100574.23;124273;1102;103321;-80
2022/06/27 10:36:18;;;;;;;4.80;3.00;;;;;;;31.59;34.75;100562.09;124757;1102;104358;-81
2022/06/27 10:39:01;;;;;;;3.50;2.83;;;;;;;31.60;34.24;100566.56;125101;1102;103667;-81
2022/06/27 10:41:49;;;;;;;6.37;3.20;;;;;;;31.59;34.28;100574.78;124443;1102;104454;-82
2022/06/27 10:44:49;;;;;;;3.70;3.00;;;;;;;31.43;33.73;100564.67;124357;1102;104323;-82
2022/06/27 10:50:43;;;;;;;4.77;3.07;;;;;;;31.64;34.13;100564.57;115782;1102;10001773;-79
2022/06/27 10:53:30;;;;;;;5.07;3.20;;;;;;;31.50;33.71;100567.95;126319;1102;101684;-82
2022/06/27 10:56:34;;;;;;;5.40;3.10;;;;;;;31.41;33.54;100553.02;126079;1102;101943;-82
2022/06/27 11:00:02;;;;;;;4.67;2.90;;;;;;;31.50;33.21;100557.97;126024;1105;102720;-80
2022/06/27 11:02:38;;;;;;;5.03;3.07;;;;;;;31.70;32.96;100567.83;124465;1105;104163;-79
2022/06/27 11:05:18;;;;;;;7.73;3.37;;;;;;;31.72;33.08;100560.48;124396;1102;104251;-81
2022/06/27 11:08:13;;;;;;;4.03;3.17;;;;;;;31.59;32.78;100558.52;125229;1102;104196;-83
2022/06/27 11:11:18;;;;;;;6.73;3.30;;;;;;;31.43;33.12;100555.64;125747;1098;104882;-83
2022/06/27 11:14:05;;;;;;;7.77;3.17;;;;;;;31.54;33.36;100556.03;125463;1099;104527;-82
2022/06/27 11:16:50;;;;;;;6.67;3.03;;;;;;;31.32;33.22;100542.63;125869;1099;102137;-81
2022/06/27 11:22:33;;;;;;;6.20;3.37;;;;;;;31.34;33.29;100554.30;125333;1102;104357;-82
2022/06/27 11:25:29;;;;;;;7.13;3.30;;;;;;;31.39;33.60;100548.64;125235;1102;104181;-83
2022/06/27 11:34:30;;;;;;;5.97;3.83;;;;;;;31.51;34.02;100548.02;124404;1102;104264;-82
2022/06/27 11:37:18;;;;;;;5.50;3.53;;;;;;;31.69;33.96;100546.21;124489;1102;104377;-82
2022/06/27 11:40:07;;;;;;;6.33;3.43;;;;;;;31.87;33.51;100553.39;125255;1102;103129;-82
2022/06/27 11:42:59;;;;;;;5.60;3.30;;;;;;;32.06;33.56;100550.58;125532;1102;109021;-82
2022/06/27 11:45:55;;;;;;;4.33;3.17;;;;;;;32.17;32.47;100552.75;125250;1103;102479;-82
2022/06/27 11:48:46;;;;;;;4.63;3.10;;;;;;;32.24;32.60;100543.33;125339;1102;104232;-82
2022/06/27 11:51:59;;;;;;;3.70;3.00;;;;;;;32.40;32.49;100537.93;125292;1102;104217;-81
2022/06/27 11:54:53;;;;;;;7.73;3.30;;;;;;;32.47;32.00;100538.45;125294;1102;103940;-83
2022/06/27 12:00:57;;;;;;;;;;;;;;;;;;;;;
2022/06/27 12:04:32;;;;;;;;;;;;;;;;;;;;;
2022/06/27 12:08:19;;;;;;;5.93;3.30;;;;;;;32.60;32.21;100525.09;126053;1099;104219;-82
2022/06/27 12:11:27;;;;;;;7.50;3.53;;;;;;;32.53;32.21;100521.82;125478;1099;104220;-81
2022/06/27 12:14:48;;;;;;;5.73;3.50;;;;;;;32.59;31.80;100529.63;125738;1099;107799;-82
2022/06/27 12:18:02;;;;;;;6.23;3.70;;;;;;;32.46;31.58;100528.58;125460;1102;102518;-81
2022/06/27 12:21:37;;;;;;;;;;;;;;;;;;;;;
2022/06/27 12:25:03;;;;;;;;;;;;;;;;;;;;;
2022/06/27 12:31:29;;;;;;;8.07;3.70;;;;;;;32.33;32.40;100522.05;125604;1102;103185;-80
2022/06/27 12:34:34;;;;;;;8.47;3.50;;;;;;;32.31;32.57;100515.84;124687;1103;102704;-81